sensor_id;sensor_type;location;lat;lon;timestamp;P1;durP1;ratioP1;P2;durP2;ratioP2
3817;SDS011;1924;48.078;11.516;2023-06-14T00:02:13;34.10;;;0.80;;
3817;SDS011;1924;48.078;11.516;2023-06-14T00:04:40;33.80;;;0.80;;
3817;SDS011;1924;48.078;11.516;2023-06-14T00:07:09;34.00;;;0.80;;
3817;SDS011;1924;48.078;11.516;2023-06-14T00:09:38;34.00;;;0.90;;
3817;SDS011;1924;48.078;11.516;2023-06-14T00:12:05;33.90;;;0.80;;
3817;SDS011;1924;48.078;11.516;2023-06-14T00:14:33;33.70;;;0.80;;
3817;SDS011;1924;48.078;11.516;2023-06-14T00:17:00;33.87;;;0.90;;
3817;SDS011;1924;48.078;11.516;2023-06-14T00:19:27;33.70;;;0.80;;
3817;SDS011;1924;48.078;11.516;2023-06-14T00:21:55;33.87;;;0.87;;
3817;SDS011;1924;48.078;11.516;2023-06-14T00:24:24;33.67;;;0.80;;
3817;SDS011;1924;48.078;11.516;2023-06-14T00:26:50;33.60;;;0.80;;
3817;SDS011;1924;48.078;11.516;2023-06-14T00:29:17;33.63;;;0.80;;
3817;SDS011;1924;48.078;11.516;2023-06-14T00:31:44;33.80;;;0.87;;
3817;SDS011;1924;48.078;11.516;2023-06-14T00:34:10;33.43;;;0.80;;
3817;SDS011;1924;48.078;11.516;2023-06-14T00:36:37;33.57;;;0.80;;
3817;SDS011;1924;48.078;11.516;2023-06-14T00:39:04;33.50;;;0.90;;
3817;SDS011;1924;48.078;11.516;2023-06-14T00:41:32;33.63;;;0.80;;
3817;SDS011;1924;48.078;11.516;2023-06-14T00:43:59;33.77;;;0.80;;
3817;SDS011;1924;48.078;11.516;2023-06-14T00:46:25;33.60;;;0.90;;
3817;SDS011;1924;48.078;11.516;2023-06-14T00:48:52;33.57;;;0.80;;
3817;SDS011;1924;48.078;11.516;2023-06-14T00:51:20;33.47;;;0.80;;
3817;SDS011;1924;48.078;11.516;2023-06-14T00:53:47;33.57;;;0.80;;
3817;SDS011;1924;48.078;11.516;2023-06-14T00:56:14;33.67;;;0.83;;
3817;SDS011;1924;48.078;11.516;2023-06-14T00:58:43;33.47;;;0.80;;
3817;SDS011;1924;48.078;11.516;2023-06-14T01:01:10;33.47;;;0.80;;
3817;SDS011;1924;48.078;11.516;2023-06-14T01:03:37;33.40;;;0.80;;
3817;SDS011;1924;48.078;11.516;2023-06-14T01:06:06;33.67;;;0.80;;
3817;SDS011;1924;48.078;11.516;2023-06-14T01:08:43;33.60;;;0.90;;
3817;SDS011;1924;48.078;11.516;2023-06-14T01:11:18;33.17;;;0.80;;
3817;SDS011;1924;48.078;11.516;2023-06-14T01:13:49;33.57;;;0.80;;
3817;SDS011;1924;48.078;11.516;2023-06-14T01:16:18;33.60;;;0.80;;
3817;SDS011;1924;48.078;11.516;2023-06-14T01:18:46;33.50;;;0.80;;
3817;SDS011;1924;48.078;11.516;2023-06-14T01:21:21;33.70;;;0.83;;
3817;SDS011;1924;48.078;11.516;2023-06-14T01:23:50;33.47;;;0.80;;
3817;SDS011;1924;48.078;11.516;2023-06-14T01:26:18;33.53;;;0.87;;
3817;SDS011;1924;48.078;11.516;2023-06-14T01:28:46;33.50;;;0.80;;
3817;SDS011;1924;48.078;11.516;2023-06-14T01:31:16;33.23;;;0.80;;
3817;SDS011;1924;48.078;11.516;2023-06-14T01:33:44;33.30;;;0.80;;
3817;SDS011;1924;48.078;11.516;2023-06-14T01:36:12;33.37;;;0.80;;
3817;SDS011;1924;48.078;11.516;2023-06-14T01:38:39;33.30;;;0.80;;
3817;SDS011;1924;48.078;11.516;2023-06-14T01:41:09;33.37;;;0.80;;
3817;SDS011;1924;48.078;11.516;2023-06-14T01:43:36;33.10;;;0.80;;
3817;SDS011;1924;48.078;11.516;2023-06-14T01:46:04;33.30;;;0.80;;
3817;SDS011;1924;48.078;11.516;2023-06-14T01:48:32;33.30;;;0.80;;
3817;SDS011;1924;48.078;11.516;2023-06-14T01:50:59;33.10;;;0.80;;
3817;SDS011;1924;48.078;11.516;2023-06-14T01:53:26;33.03;;;0.80;;
3817;SDS011;1924;48.078;11.516;2023-06-14T01:55:52;33.10;;;0.80;;
3817;SDS011;1924;48.078;11.516;2023-06-14T01:58:21;33.10;;;0.80;;
3817;SDS011;1924;48.078;11.516;2023-06-14T02:00:48;33.20;;;0.80;;
3817;SDS011;1924;48.078;11.516;2023-06-14T02:03:16;33.30;;;0.80;;
3817;SDS011;1924;48.078;11.516;2023-06-14T02:05:44;33.30;;;0.80;;
3817;SDS011;1924;48.078;11.516;2023-06-14T02:08:11;33.20;;;0.90;;
3817;SDS011;1924;48.078;11.516;2023-06-14T02:10:37;33.20;;;0.80;;
3817;SDS011;1924;48.078;11.516;2023-06-14T02:13:04;33.00;;;0.80;;
3817;SDS011;1924;48.078;11.516;2023-06-14T02:15:32;33.17;;;0.80;;
3817;SDS011;1924;48.078;11.516;2023-06-14T02:18:00;33.17;;;0.80;;
3817;SDS011;1924;48.078;11.516;2023-06-14T02:20:28;33.10;;;0.80;;
3817;SDS011;1924;48.078;11.516;2023-06-14T02:22:55;33.07;;;0.80;;
3817;SDS011;1924;48.078;11.516;2023-06-14T02:25:22;33.13;;;0.80;;
3817;SDS011;1924;48.078;11.516;2023-06-14T02:27:48;33.13;;;0.80;;
3817;SDS011;1924;48.078;11.516;2023-06-14T02:30:15;33.10;;;0.80;;
3817;SDS011;1924;48.078;11.516;2023-06-14T02:32:43;33.07;;;0.80;;
3817;SDS011;1924;48.078;11.516;2023-06-14T02:35:10;33.03;;;0.80;;
3817;SDS011;1924;48.078;11.516;2023-06-14T02:37:38;33.10;;;0.80;;
3817;SDS011;1924;48.078;11.516;2023-06-14T02:40:05;32.87;;;0.80;;
3817;SDS011;1924;48.078;11.516;2023-06-14T04:02:05;32.60;;;0.80;;
3817;SDS011;1924;48.078;11.516;2023-06-14T04:04:32;32.70;;;0.80;;
3817;SDS011;1924;48.078;11.516;2023-06-14T04:07:00;32.60;;;0.90;;
3817;SDS011;1924;48.078;11.516;2023-06-14T04:09:28;32.80;;;0.80;;
3817;SDS011;1924;48.078;11.516;2023-06-14T04:11:55;32.77;;;0.80;;
3817;SDS011;1924;48.078;11.516;2023-06-14T04:14:22;32.60;;;0.90;;
3817;SDS011;1924;48.078;11.516;2023-06-14T04:16:49;32.50;;;0.80;;
3817;SDS011;1924;48.078;11.516;2023-06-14T04:19:17;32.50;;;0.80;;
3817;SDS011;1924;48.078;11.516;2023-06-14T04:21:43;32.27;;;0.80;;
3817;SDS011;1924;48.078;11.516;2023-06-14T04:24:10;32.70;;;0.80;;
3817;SDS011;1924;48.078;11.516;2023-06-14T04:26:38;32.67;;;0.90;;
3817;SDS011;1924;48.078;11.516;2023-06-14T04:29:05;32.40;;;0.80;;
3817;SDS011;1924;48.078;11.516;2023-06-14T04:31:32;32.67;;;0.90;;
3817;SDS011;1924;48.078;11.516;2023-06-14T04:34:02;32.70;;;0.80;;
3817;SDS011;1924;48.078;11.516;2023-06-14T04:36:33;32.50;;;0.80;;
3817;SDS011;1924;48.078;11.516;2023-06-14T04:39:01;32.77;;;0.80;;
3817;SDS011;1924;48.078;11.516;2023-06-14T04:41:29;32.43;;;0.80;;
3817;SDS011;1924;48.078;11.516;2023-06-14T04:43:56;32.70;;;0.80;;
3817;SDS011;1924;48.078;11.516;2023-06-14T04:46:26;32.27;;;0.80;;
3817;SDS011;1924;48.078;11.516;2023-06-14T04:48:53;32.50;;;0.80;;
3817;SDS011;1924;48.078;11.516;2023-06-14T04:51:20;32.53;;;0.80;;
3817;SDS011;1924;48.078;11.516;2023-06-14T04:53:55;32.70;;;0.80;;
3817;SDS011;1924;48.078;11.516;2023-06-14T04:56:23;32.63;;;0.80;;
3817;SDS011;1924;48.078;11.516;2023-06-14T04:58:50;32.57;;;0.80;;
3817;SDS011;1924;48.078;11.516;2023-06-14T05:01:16;32.60;;;0.80;;
3817;SDS011;1924;48.078;11.516;2023-06-14T05:03:43;32.90;;;0.80;;
3817;SDS011;1924;48.078;11.516;2023-06-14T05:06:13;32.80;;;0.80;;
3817;SDS011;1924;48.078;11.516;2023-06-14T05:08:40;32.90;;;0.80;;
3817;SDS011;1924;48.078;11.516;2023-06-14T05:11:08;32.60;;;0.80;;
3817;SDS011;1924;48.078;11.516;2023-06-14T05:13:35;32.90;;;0.80;;
3817;SDS011;1924;48.078;11.516;2023-06-14T05:16:01;33.10;;;0.80;;
3817;SDS011;1924;48.078;11.516;2023-06-14T05:18:28;32.97;;;0.80;;
3817;SDS011;1924;48.078;11.516;2023-06-14T05:20:55;33.07;;;0.80;;
3817;SDS011;1924;48.078;11.516;2023-06-14T05:23:22;33.00;;;0.80;;
3817;SDS011;1924;48.078;11.516;2023-06-14T05:25:48;32.90;;;0.80;;
3817;SDS011;1924;48.078;11.516;2023-06-14T05:28:16;33.03;;;0.80;;
3817;SDS011;1924;48.078;11.516;2023-06-14T05:30:43;32.97;;;0.80;;
3817;SDS011;1924;48.078;11.516;2023-06-14T05:33:10;33.07;;;0.80;;
3817;SDS011;1924;48.078;11.516;2023-06-14T05:35:36;33.20;;;0.80;;
3817;SDS011;1924;48.078;11.516;2023-06-14T05:38:03;33.07;;;0.80;;
3817;SDS011;1924;48.078;11.516;2023-06-14T05:40:30;32.90;;;0.80;;
3817;SDS011;1924;48.078;11.516;2023-06-14T05:42:57;33.27;;;0.90;;
3817;SDS011;1924;48.078;11.516;2023-06-14T05:45:25;33.67;;;0.90;;
3817;SDS011;1924;48.078;11.516;2023-06-14T05:47:52;33.10;;;0.80;;
3817;SDS011;1924;48.078;11.516;2023-06-14T05:50:19;33.20;;;0.80;;
3817;SDS011;1924;48.078;11.516;2023-06-14T05:52:46;33.07;;;0.83;;
3817;SDS011;1924;48.078;11.516;2023-06-14T05:55:13;32.90;;;0.80;;
3817;SDS011;1924;48.078;11.516;2023-06-14T05:57:42;32.77;;;0.80;;
3817;SDS011;1924;48.078;11.516;2023-06-14T06:00:09;32.87;;;0.80;;
3817;SDS011;1924;48.078;11.516;2023-06-14T06:02:40;33.00;;;0.80;;
3817;SDS011;1924;48.078;11.516;2023-06-14T06:05:07;33.10;;;0.80;;
3817;SDS011;1924;48.078;11.516;2023-06-14T06:07:34;33.20;;;0.80;;
3817;SDS011;1924;48.078;11.516;2023-06-14T06:10:01;33.00;;;0.80;;
3817;SDS011;1924;48.078;11.516;2023-06-14T06:12:28;33.07;;;0.80;;
3817;SDS011;1924;48.078;11.516;2023-06-14T06:14:54;32.87;;;0.80;;
3817;SDS011;1924;48.078;11.516;2023-06-14T06:17:21;33.00;;;0.80;;
3817;SDS011;1924;48.078;11.516;2023-06-14T06:19:49;32.97;;;0.80;;
3817;SDS011;1924;48.078;11.516;2023-06-14T06:22:16;33.00;;;0.80;;
3817;SDS011;1924;48.078;11.516;2023-06-14T06:24:43;33.00;;;0.80;;
3817;SDS011;1924;48.078;11.516;2023-06-14T06:27:09;32.87;;;0.80;;
3817;SDS011;1924;48.078;11.516;2023-06-14T06:29:37;33.07;;;0.80;;
3817;SDS011;1924;48.078;11.516;2023-06-14T06:32:04;32.93;;;0.80;;
3817;SDS011;1924;48.078;11.516;2023-06-14T06:34:32;32.83;;;0.80;;
3817;SDS011;1924;48.078;11.516;2023-06-14T06:37:00;33.07;;;0.80;;
3817;SDS011;1924;48.078;11.516;2023-06-14T06:39:26;33.00;;;0.80;;
3817;SDS011;1924;48.078;11.516;2023-06-14T06:41:53;32.93;;;0.80;;
3817;SDS011;1924;48.078;11.516;2023-06-14T06:44:20;32.97;;;0.80;;
3817;SDS011;1924;48.078;11.516;2023-06-14T06:46:47;33.23;;;0.90;;
3817;SDS011;1924;48.078;11.516;2023-06-14T06:49:14;32.97;;;0.80;;
3817;SDS011;1924;48.078;11.516;2023-06-14T06:51:41;33.03;;;0.80;;
3817;SDS011;1924;48.078;11.516;2023-06-14T06:54:10;33.10;;;0.80;;
3817;SDS011;1924;48.078;11.516;2023-06-14T06:56:37;33.10;;;0.80;;
3817;SDS011;1924;48.078;11.516;2023-06-14T06:59:04;33.03;;;0.80;;
3817;SDS011;1924;48.078;11.516;2023-06-14T07:01:31;33.20;;;0.80;;
3817;SDS011;1924;48.078;11.516;2023-06-14T07:03:58;33.10;;;0.80;;
3817;SDS011;1924;48.078;11.516;2023-06-14T07:06:25;33.20;;;0.80;;
3817;SDS011;1924;48.078;11.516;2023-06-14T07:08:52;33.07;;;0.80;;
3817;SDS011;1924;48.078;11.516;2023-06-14T07:11:20;33.13;;;0.80;;
3817;SDS011;1924;48.078;11.516;2023-06-14T07:13:47;32.77;;;0.80;;
3817;SDS011;1924;48.078;11.516;2023-06-14T07:16:14;33.17;;;0.80;;
3817;SDS011;1924;48.078;11.516;2023-06-14T07:18:41;33.07;;;0.80;;
3817;SDS011;1924;48.078;11.516;2023-06-14T07:21:07;33.10;;;0.80;;
3817;SDS011;1924;48.078;11.516;2023-06-14T07:23:34;33.07;;;0.80;;
3817;SDS011;1924;48.078;11.516;2023-06-14T07:26:01;33.30;;;0.80;;
3817;SDS011;1924;48.078;11.516;2023-06-14T07:28:29;33.50;;;0.80;;
3817;SDS011;1924;48.078;11.516;2023-06-14T07:30:56;33.23;;;0.80;;
3817;SDS011;1924;48.078;11.516;2023-06-14T07:33:22;33.50;;;0.80;;
3817;SDS011;1924;48.078;11.516;2023-06-14T07:35:49;33.67;;;0.80;;
3817;SDS011;1924;48.078;11.516;2023-06-14T07:38:17;33.60;;;0.80;;
3817;SDS011;1924;48.078;11.516;2023-06-14T07:40:44;33.57;;;0.80;;
3817;SDS011;1924;48.078;11.516;2023-06-14T07:43:11;33.70;;;0.80;;
3817;SDS011;1924;48.078;11.516;2023-06-14T07:45:39;33.57;;;0.80;;
3817;SDS011;1924;48.078;11.516;2023-06-14T07:48:06;33.67;;;0.80;;
3817;SDS011;1924;48.078;11.516;2023-06-14T07:50:33;33.53;;;0.80;;
3817;SDS011;1924;48.078;11.516;2023-06-14T07:52:59;33.47;;;0.80;;
3817;SDS011;1924;48.078;11.516;2023-06-14T07:55:26;33.43;;;0.80;;
3817;SDS011;1924;48.078;11.516;2023-06-14T07:57:53;33.47;;;0.80;;
3817;SDS011;1924;48.078;11.516;2023-06-14T08:00:20;33.70;;;0.80;;
3817;SDS011;1924;48.078;11.516;2023-06-14T08:02:48;33.60;;;0.80;;
3817;SDS011;1924;48.078;11.516;2023-06-14T08:05:15;33.60;;;0.80;;
3817;SDS011;1924;48.078;11.516;2023-06-14T08:07:42;33.60;;;0.80;;
3817;SDS011;1924;48.078;11.516;2023-06-14T08:10:09;33.77;;;0.80;;
3817;SDS011;1924;48.078;11.516;2023-06-14T08:12:36;33.60;;;0.80;;
3817;SDS011;1924;48.078;11.516;2023-06-14T08:15:03;33.67;;;0.80;;
3817;SDS011;1924;48.078;11.516;2023-06-14T08:17:30;33.77;;;0.80;;
3817;SDS011;1924;48.078;11.516;2023-06-14T08:19:58;33.67;;;0.80;;
3817;SDS011;1924;48.078;11.516;2023-06-14T08:22:25;33.43;;;0.80;;
3817;SDS011;1924;48.078;11.516;2023-06-14T08:24:53;33.57;;;0.80;;
3817;SDS011;1924;48.078;11.516;2023-06-14T08:27:20;33.77;;;0.87;;
3817;SDS011;1924;48.078;11.516;2023-06-14T08:29:47;33.60;;;0.80;;
3817;SDS011;1924;48.078;11.516;2023-06-14T08:32:14;33.80;;;0.80;;
3817;SDS011;1924;48.078;11.516;2023-06-14T08:34:41;33.80;;;0.80;;
3817;SDS011;1924;48.078;11.516;2023-06-14T08:37:09;33.87;;;0.80;;
3817;SDS011;1924;48.078;11.516;2023-06-14T08:39:35;33.73;;;0.80;;
3817;SDS011;1924;48.078;11.516;2023-06-14T08:42:03;33.67;;;0.80;;
3817;SDS011;1924;48.078;11.516;2023-06-14T08:44:31;33.80;;;0.80;;
3817;SDS011;1924;48.078;11.516;2023-06-14T08:46:58;33.67;;;0.80;;
3817;SDS011;1924;48.078;11.516;2023-06-14T08:49:26;33.60;;;0.80;;
3817;SDS011;1924;48.078;11.516;2023-06-14T08:51:54;33.83;;;0.80;;
3817;SDS011;1924;48.078;11.516;2023-06-14T08:54:26;33.87;;;0.80;;
3817;SDS011;1924;48.078;11.516;2023-06-14T08:56:55;33.97;;;0.80;;
3817;SDS011;1924;48.078;11.516;2023-06-14T08:59:23;33.90;;;0.80;;
3817;SDS011;1924;48.078;11.516;2023-06-14T09:01:51;33.83;;;0.80;;
3817;SDS011;1924;48.078;11.516;2023-06-14T09:04:19;33.93;;;0.80;;
3817;SDS011;1924;48.078;11.516;2023-06-14T09:06:46;34.10;;;0.80;;
3817;SDS011;1924;48.078;11.516;2023-06-14T09:09:17;33.80;;;0.80;;
3817;SDS011;1924;48.078;11.516;2023-06-14T09:11:46;34.00;;;0.80;;
3817;SDS011;1924;48.078;11.516;2023-06-14T09:14:13;33.87;;;0.80;;
3817;SDS011;1924;48.078;11.516;2023-06-14T09:16:40;33.90;;;0.80;;
3817;SDS011;1924;48.078;11.516;2023-06-14T09:19:06;34.00;;;0.80;;
3817;SDS011;1924;48.078;11.516;2023-06-14T09:21:33;33.97;;;0.80;;
3817;SDS011;1924;48.078;11.516;2023-06-14T09:24:02;34.07;;;0.80;;
3817;SDS011;1924;48.078;11.516;2023-06-14T09:26:29;34.00;;;0.80;;
3817;SDS011;1924;48.078;11.516;2023-06-14T09:28:57;34.07;;;0.80;;
3817;SDS011;1924;48.078;11.516;2023-06-14T09:31:24;34.17;;;0.80;;
3817;SDS011;1924;48.078;11.516;2023-06-14T09:33:54;34.03;;;0.80;;
3817;SDS011;1924;48.078;11.516;2023-06-14T09:36:22;34.00;;;0.80;;
3817;SDS011;1924;48.078;11.516;2023-06-14T09:38:52;34.03;;;0.80;;
3817;SDS011;1924;48.078;11.516;2023-06-14T09:41:20;34.00;;;0.80;;
3817;SDS011;1924;48.078;11.516;2023-06-14T09:43:47;34.07;;;0.80;;
3817;SDS011;1924;48.078;11.516;2023-06-14T09:46:16;34.43;;;0.80;;
3817;SDS011;1924;48.078;11.516;2023-06-14T09:48:43;34.27;;;0.80;;
3817;SDS011;1924;48.078;11.516;2023-06-14T09:51:10;34.17;;;0.80;;
3817;SDS011;1924;48.078;11.516;2023-06-14T09:53:38;34.07;;;0.80;;
3817;SDS011;1924;48.078;11.516;2023-06-14T09:56:07;34.03;;;0.80;;
3817;SDS011;1924;48.078;11.516;2023-06-14T09:58:34;34.10;;;0.80;;
3817;SDS011;1924;48.078;11.516;2023-06-14T10:01:05;34.30;;;0.80;;
3817;SDS011;1924;48.078;11.516;2023-06-14T10:03:40;34.40;;;0.80;;
3817;SDS011;1924;48.078;11.516;2023-06-14T10:06:08;34.30;;;0.80;;
3817;SDS011;1924;48.078;11.516;2023-06-14T10:08:35;34.30;;;0.80;;
3817;SDS011;1924;48.078;11.516;2023-06-14T10:11:03;34.23;;;0.80;;
3817;SDS011;1924;48.078;11.516;2023-06-14T10:13:31;34.40;;;0.80;;
3817;SDS011;1924;48.078;11.516;2023-06-14T10:16:00;34.50;;;0.80;;
3817;SDS011;1924;48.078;11.516;2023-06-14T10:18:35;34.33;;;0.80;;
3817;SDS011;1924;48.078;11.516;2023-06-14T10:21:13;34.20;;;0.80;;
3817;SDS011;1924;48.078;11.516;2023-06-14T10:23:42;34.40;;;0.80;;
3817;SDS011;1924;48.078;11.516;2023-06-14T10:26:17;34.30;;;0.80;;
3817;SDS011;1924;48.078;11.516;2023-06-14T10:28:54;34.10;;;0.80;;
3817;SDS011;1924;48.078;11.516;2023-06-14T10:31:22;34.30;;;0.80;;
3817;SDS011;1924;48.078;11.516;2023-06-14T10:34:06;34.17;;;0.80;;
3817;SDS011;1924;48.078;11.516;2023-06-14T10:36:33;33.97;;;0.80;;
3817;SDS011;1924;48.078;11.516;2023-06-14T10:39:01;34.00;;;0.80;;
3817;SDS011;1924;48.078;11.516;2023-06-14T10:41:31;34.17;;;0.80;;
3817;SDS011;1924;48.078;11.516;2023-06-14T10:47:20;34.37;;;0.80;;
3817;SDS011;1924;48.078;11.516;2023-06-14T10:49:53;34.30;;;0.80;;
3817;SDS011;1924;48.078;11.516;2023-06-14T10:52:21;34.27;;;0.80;;
3817;SDS011;1924;48.078;11.516;2023-06-14T10:54:59;34.27;;;0.80;;
3817;SDS011;1924;48.078;11.516;2023-06-14T10:57:31;34.47;;;0.80;;
3817;SDS011;1924;48.078;11.516;2023-06-14T10:59:58;34.43;;;0.80;;
3817;SDS011;1924;48.078;11.516;2023-06-14T11:05:31;34.37;;;0.80;;
3817;SDS011;1924;48.078;11.516;2023-06-14T11:08:17;34.50;;;0.80;;
3817;SDS011;1924;48.078;11.516;2023-06-14T11:10:54;34.57;;;0.80;;
3817;SDS011;1924;48.078;11.516;2023-06-14T11:13:25;34.33;;;0.80;;
3817;SDS011;1924;48.078;11.516;2023-06-14T11:15:52;34.47;;;0.80;;
3817;SDS011;1924;48.078;11.516;2023-06-14T11:18:21;34.67;;;0.80;;
3817;SDS011;1924;48.078;11.516;2023-06-14T11:20:50;34.67;;;0.80;;
3817;SDS011;1924;48.078;11.516;2023-06-14T11:23:17;34.70;;;0.80;;
3817;SDS011;1924;48.078;11.516;2023-06-14T11:25:49;34.53;;;0.80;;
3817;SDS011;1924;48.078;11.516;2023-06-14T11:28:16;34.63;;;0.80;;
3817;SDS011;1924;48.078;11.516;2023-06-14T11:30:44;34.87;;;0.80;;
3817;SDS011;1924;48.078;11.516;2023-06-14T11:33:11;34.37;;;0.80;;
3817;SDS011;1924;48.078;11.516;2023-06-14T11:35:42;34.60;;;0.80;;
3817;SDS011;1924;48.078;11.516;2023-06-14T11:38:11;34.67;;;0.80;;
3817;SDS011;1924;48.078;11.516;2023-06-14T11:40:37;34.63;;;0.80;;
3817;SDS011;1924;48.078;11.516;2023-06-14T11:43:04;34.67;;;0.80;;
3817;SDS011;1924;48.078;11.516;2023-06-14T11:45:31;34.57;;;0.80;;
3817;SDS011;1924;48.078;11.516;2023-06-14T11:47:58;34.87;;;0.80;;
3817;SDS011;1924;48.078;11.516;2023-06-14T11:50:25;34.67;;;0.80;;
3817;SDS011;1924;48.078;11.516;2023-06-14T11:52:53;34.70;;;0.80;;
3817;SDS011;1924;48.078;11.516;2023-06-14T11:55:22;34.53;;;0.80;;
3817;SDS011;1924;48.078;11.516;2023-06-14T11:57:49;34.80;;;0.80;;
3817;SDS011;1924;48.078;11.516;2023-06-14T12:00:16;34.67;;;0.80;;
3817;SDS011;1924;48.078;11.516;2023-06-14T12:02:52;34.60;;;0.80;;
3817;SDS011;1924;48.078;11.516;2023-06-14T12:05:20;34.50;;;0.80;;
3817;SDS011;1924;48.078;11.516;2023-06-14T12:07:47;34.57;;;0.80;;
3817;SDS011;1924;48.078;11.516;2023-06-14T12:10:15;34.60;;;0.80;;
3817;SDS011;1924;48.078;11.516;2023-06-14T12:12:44;34.77;;;0.80;;
3817;SDS011;1924;48.078;11.516;2023-06-14T12:15:10;34.57;;;0.80;;
3817;SDS011;1924;48.078;11.516;2023-06-14T12:17:38;34.70;;;0.80;;
3817;SDS011;1924;48.078;11.516;2023-06-14T12:20:08;34.50;;;0.80;;
3817;SDS011;1924;48.078;11.516;2023-06-14T12:22:39;34.60;;;0.80;;
3817;SDS011;1924;48.078;11.516;2023-06-14T12:25:16;34.77;;;0.80;;
3817;SDS011;1924;48.078;11.516;2023-06-14T12:27:53;34.67;;;0.80;;
3817;SDS011;1924;48.078;11.516;2023-06-14T12:30:20;34.80;;;0.80;;
3817;SDS011;1924;48.078;11.516;2023-06-14T12:32:46;34.67;;;0.80;;
3817;SDS011;1924;48.078;11.516;2023-06-14T12:35:13;34.43;;;0.80;;
3817;SDS011;1924;48.078;11.516;2023-06-14T12:37:40;34.60;;;0.80;;
3817;SDS011;1924;48.078;11.516;2023-06-14T12:40:07;34.77;;;0.80;;
3817;SDS011;1924;48.078;11.516;2023-06-14T12:42:36;34.60;;;0.80;;
3817;SDS011;1924;48.078;11.516;2023-06-14T12:45:04;34.63;;;0.80;;
3817;SDS011;1924;48.078;11.516;2023-06-14T12:47:32;34.63;;;0.80;;
3817;SDS011;1924;48.078;11.516;2023-06-14T12:49:58;34.60;;;0.80;;
3817;SDS011;1924;48.078;11.516;2023-06-14T12:52:25;34.93;;;0.80;;
3817;SDS011;1924;48.078;11.516;2023-06-14T12:54:52;34.80;;;0.80;;
3817;SDS011;1924;48.078;11.516;2023-06-14T12:57:19;34.80;;;0.80;;
3817;SDS011;1924;48.078;11.516;2023-06-14T12:59:45;34.80;;;0.80;;
3817;SDS011;1924;48.078;11.516;2023-06-14T13:02:15;34.83;;;0.80;;
3817;SDS011;1924;48.078;11.516;2023-06-14T13:04:42;34.63;;;0.80;;
3817;SDS011;1924;48.078;11.516;2023-06-14T13:07:09;34.87;;;0.80;;
3817;SDS011;1924;48.078;11.516;2023-06-14T13:09:36;34.77;;;0.80;;
3817;SDS011;1924;48.078;11.516;2023-06-14T13:12:03;34.53;;;0.80;;
3817;SDS011;1924;48.078;11.516;2023-06-14T13:14:30;34.77;;;0.80;;
3817;SDS011;1924;48.078;11.516;2023-06-14T13:16:57;34.57;;;0.80;;
3817;SDS011;1924;48.078;11.516;2023-06-14T13:19:25;34.63;;;0.80;;
3817;SDS011;1924;48.078;11.516;2023-06-14T13:21:52;34.70;;;0.80;;
3817;SDS011;1924;48.078;11.516;2023-06-14T13:24:18;34.77;;;0.80;;
3817;SDS011;1924;48.078;11.516;2023-06-14T13:26:45;34.97;;;0.80;;
3817;SDS011;1924;48.078;11.516;2023-06-14T13:29:12;34.97;;;0.80;;
3817;SDS011;1924;48.078;11.516;2023-06-14T13:31:38;34.77;;;0.80;;
3817;SDS011;1924;48.078;11.516;2023-06-14T13:34:05;34.90;;;0.80;;
3817;SDS011;1924;48.078;11.516;2023-06-14T13:36:33;34.87;;;0.80;;
3817;SDS011;1924;48.078;11.516;2023-06-14T13:39:00;34.77;;;0.80;;
3817;SDS011;1924;48.078;11.516;2023-06-14T13:41:27;34.77;;;0.80;;
3817;SDS011;1924;48.078;11.516;2023-06-14T13:43:56;34.77;;;0.80;;
3817;SDS011;1924;48.078;11.516;2023-06-14T13:46:24;34.87;;;0.80;;
3817;SDS011;1924;48.078;11.516;2023-06-14T13:48:51;34.87;;;0.80;;
3817;SDS011;1924;48.078;11.516;2023-06-14T13:51:17;34.77;;;0.80;;
3817;SDS011;1924;48.078;11.516;2023-06-14T13:53:47;34.80;;;0.80;;
3817;SDS011;1924;48.078;11.516;2023-06-14T13:56:15;34.73;;;0.80;;
3817;SDS011;1924;48.078;11.516;2023-06-14T13:58:42;34.90;;;0.80;;
3817;SDS011;1924;48.078;11.516;2023-06-14T14:01:09;34.73;;;0.80;;
3817;SDS011;1924;48.078;11.516;2023-06-14T14:03:36;34.67;;;0.80;;
3817;SDS011;1924;48.078;11.516;2023-06-14T14:06:03;34.83;;;0.80;;
3817;SDS011;1924;48.078;11.516;2023-06-14T14:08:31;34.80;;;0.80;;
3817;SDS011;1924;48.078;11.516;2023-06-14T14:10:59;34.83;;;0.80;;
3817;SDS011;1924;48.078;11.516;2023-06-14T14:13:25;34.90;;;0.80;;
3817;SDS011;1924;48.078;11.516;2023-06-14T14:15:52;34.53;;;0.80;;
3817;SDS011;1924;48.078;11.516;2023-06-14T14:18:19;34.80;;;0.80;;
3817;SDS011;1924;48.078;11.516;2023-06-14T14:20:46;34.80;;;0.80;;
3817;SDS011;1924;48.078;11.516;2023-06-14T14:23:13;35.00;;;0.80;;
3817;SDS011;1924;48.078;11.516;2023-06-14T14:25:40;34.63;;;0.80;;
3817;SDS011;1924;48.078;11.516;2023-06-14T14:28:08;35.00;;;0.80;;
3817;SDS011;1924;48.078;11.516;2023-06-14T14:30:36;34.83;;;0.80;;
3817;SDS011;1924;48.078;11.516;2023-06-14T14:33:04;34.83;;;0.80;;
3817;SDS011;1924;48.078;11.516;2023-06-14T14:35:31;34.63;;;0.80;;
3817;SDS011;1924;48.078;11.516;2023-06-14T14:37:58;34.87;;;0.80;;
3817;SDS011;1924;48.078;11.516;2023-06-14T14:40:25;34.83;;;0.80;;
3817;SDS011;1924;48.078;11.516;2023-06-14T14:42:51;34.77;;;0.80;;
3817;SDS011;1924;48.078;11.516;2023-06-14T14:45:19;34.87;;;0.80;;
3817;SDS011;1924;48.078;11.516;2023-06-14T14:47:46;34.90;;;0.80;;
3817;SDS011;1924;48.078;11.516;2023-06-14T14:50:13;34.77;;;0.80;;
3817;SDS011;1924;48.078;11.516;2023-06-14T14:52:39;34.77;;;0.80;;
3817;SDS011;1924;48.078;11.516;2023-06-14T14:55:07;34.93;;;0.80;;
3817;SDS011;1924;48.078;11.516;2023-06-14T14:57:34;34.73;;;0.80;;
3817;SDS011;1924;48.078;11.516;2023-06-14T15:00:01;34.90;;;0.80;;
3817;SDS011;1924;48.078;11.516;2023-06-14T15:02:30;34.73;;;0.80;;
3817;SDS011;1924;48.078;11.516;2023-06-14T15:04:56;34.67;;;0.80;;
3817;SDS011;1924;48.078;11.516;2023-06-14T15:07:25;34.93;;;0.80;;
3817;SDS011;1924;48.078;11.516;2023-06-14T15:09:52;34.93;;;0.80;;
3817;SDS011;1924;48.078;11.516;2023-06-14T15:12:19;35.00;;;0.80;;
3817;SDS011;1924;48.078;11.516;2023-06-14T15:14:48;34.87;;;0.80;;
3817;SDS011;1924;48.078;11.516;2023-06-14T15:17:16;34.77;;;0.80;;
3817;SDS011;1924;48.078;11.516;2023-06-14T15:19:44;34.67;;;0.80;;
3817;SDS011;1924;48.078;11.516;2023-06-14T15:22:11;34.77;;;0.80;;
3817;SDS011;1924;48.078;11.516;2023-06-14T15:24:38;34.83;;;0.80;;
3817;SDS011;1924;48.078;11.516;2023-06-14T15:27:05;34.93;;;0.80;;
3817;SDS011;1924;48.078;11.516;2023-06-14T15:29:32;34.73;;;0.80;;
3817;SDS011;1924;48.078;11.516;2023-06-14T15:31:58;34.87;;;0.80;;
3817;SDS011;1924;48.078;11.516;2023-06-14T15:34:26;34.73;;;0.80;;
3817;SDS011;1924;48.078;11.516;2023-06-14T15:36:54;34.87;;;0.80;;
3817;SDS011;1924;48.078;11.516;2023-06-14T15:39:21;34.80;;;0.80;;
3817;SDS011;1924;48.078;11.516;2023-06-14T15:41:49;34.67;;;0.80;;
3817;SDS011;1924;48.078;11.516;2023-06-14T15:44:19;34.73;;;0.80;;
3817;SDS011;1924;48.078;11.516;2023-06-14T15:46:45;34.77;;;0.80;;
3817;SDS011;1924;48.078;11.516;2023-06-14T15:49:12;34.97;;;0.80;;
3817;SDS011;1924;48.078;11.516;2023-06-14T15:51:39;34.70;;;0.80;;
3817;SDS011;1924;48.078;11.516;2023-06-14T15:54:07;34.70;;;0.80;;
3817;SDS011;1924;48.078;11.516;2023-06-14T15:56:34;34.70;;;0.80;;
3817;SDS011;1924;48.078;11.516;2023-06-14T15:59:01;34.63;;;0.80;;
3817;SDS011;1924;48.078;11.516;2023-06-14T16:01:28;34.80;;;0.80;;
3817;SDS011;1924;48.078;11.516;2023-06-14T16:03:56;34.73;;;0.80;;
3817;SDS011;1924;48.078;11.516;2023-06-14T16:06:22;34.67;;;0.80;;
3817;SDS011;1924;48.078;11.516;2023-06-14T16:08:49;34.93;;;0.80;;
3817;SDS011;1924;48.078;11.516;2023-06-14T16:11:18;34.60;;;0.90;;
3817;SDS011;1924;48.078;11.516;2023-06-14T16:13:46;34.73;;;0.80;;
3817;SDS011;1924;48.078;11.516;2023-06-14T16:16:12;35.00;;;0.80;;
3817;SDS011;1924;48.078;11.516;2023-06-14T16:18:39;34.77;;;0.80;;